sensor_id;sensor_type;location;lat;lon;timestamp;pressure;altitude;pressure_sealevel;temperature;humidity
54936;BME280;40838;50.676;7.838;2023-02-03T00:02:15;99260.41;;;3.61;100.00
54936;BME280;40838;50.676;7.838;2023-02-03T00:04:42;99259.94;;;3.77;100.00
54936;BME280;40838;50.676;7.838;2023-02-03T00:07:11;99255.25;;;4.17;100.00
54936;BME280;40838;50.676;7.838;2023-02-03T00:09:39;99255.34;;;3.59;100.00
54936;BME280;40838;50.676;7.838;2023-02-03T00:12:07;99251.63;;;3.73;100.00
54936;BME280;40838;50.676;7.838;2023-02-03T00:14:34;99255.25;;;3.86;100.00
54936;BME280;40838;50.676;7.838;2023-02-03T00:17:02;99245.19;;;4.08;100.00
54936;BME280;40838;50.676;7.838;2023-02-03T00:19:31;99231.53;;;3.79;100.00
54936;BME280;40838;50.676;7.838;2023-02-03T00:21:58;99220.50;;;3.50;100.00
54936;BME280;40838;50.676;7.838;2023-02-03T00:24:25;99205.66;;;3.69;100.00
54936;BME280;40838;50.676;7.838;2023-02-03T00:26:53;99194.63;;;3.79;100.00
54936;BME280;40838;50.676;7.838;2023-02-03T00:29:21;99209.66;;;3.79;100.00
54936;BME280;40838;50.676;7.838;2023-02-03T00:31:50;99203.97;;;4.13;100.00
54936;BME280;40838;50.676;7.838;2023-02-03T00:34:18;99189.13;;;4.19;100.00
54936;BME280;40838;50.676;7.838;2023-02-03T00:36:46;99182.38;;;4.30;100.00
54936;BME280;40838;50.676;7.838;2023-02-03T00:39:14;99186.47;;;4.19;100.00
54936;BME280;40838;50.676;7.838;2023-02-03T00:41:41;99181.75;;;3.64;100.00
54936;BME280;40838;50.676;7.838;2023-02-03T00:44:08;99177.81;;;3.80;100.00
54936;BME280;40838;50.676;7.838;2023-02-03T00:46:35;99171.59;;;3.68;100.00
54936;BME280;40838;50.676;7.838;2023-02-03T00:49:03;99160.13;;;3.87;100.00
54936;BME280;40838;50.676;7.838;2023-02-03T00:51:30;99166.50;;;3.73;100.00
54936;BME280;40838;50.676;7.838;2023-02-03T00:53:59;99163.91;;;3.66;100.00
54936;BME280;40838;50.676;7.838;2023-02-03T00:56:28;99161.16;;;3.86;100.00
54936;BME280;40838;50.676;7.838;2023-02-03T00:58:55;99159.75;;;4.15;100.00
54936;BME280;40838;50.676;7.838;2023-02-03T01:01:22;99170.19;;;3.65;100.00
54936;BME280;40838;50.676;7.838;2023-02-03T01:03:49;99172.88;;;3.52;100.00
54936;BME280;40838;50.676;7.838;2023-02-03T01:06:18;99164.47;;;3.37;100.00
54936;BME280;40838;50.676;7.838;2023-02-03T01:08:46;99171.88;;;3.53;100.00
54936;BME280;40838;50.676;7.838;2023-02-03T01:11:16;99167.53;;;3.72;100.00
54936;BME280;40838;50.676;7.838;2023-02-03T01:13:44;99162.13;;;3.92;100.00
54936;BME280;40838;50.676;7.838;2023-02-03T01:16:13;99161.28;;;3.98;100.00
54936;BME280;40838;50.676;7.838;2023-02-03T01:18:41;99157.75;;;3.79;100.00
54936;BME280;40838;50.676;7.838;2023-02-03T01:21:10;99154.97;;;3.67;100.00
54936;BME280;40838;50.676;7.838;2023-02-03T01:23:38;99164.81;;;3.47;100.00
54936;BME280;40838;50.676;7.838;2023-02-03T01:26:07;99171.47;;;3.49;100.00
54936;BME280;40838;50.676;7.838;2023-02-03T01:28:37;99161.09;;;3.61;100.00
54936;BME280;40838;50.676;7.838;2023-02-03T01:31:08;99159.06;;;3.63;100.00
54936;BME280;40838;50.676;7.838;2023-02-03T01:33:37;99157.59;;;3.74;100.00
54936;BME280;40838;50.676;7.838;2023-02-03T01:36:06;99160.72;;;3.58;100.00
54936;BME280;40838;50.676;7.838;2023-02-03T01:38:34;99166.59;;;3.60;100.00
54936;BME280;40838;50.676;7.838;2023-02-03T01:41:01;99163.00;;;3.41;100.00
54936;BME280;40838;50.676;7.838;2023-02-03T01:43:30;99171.34;;;3.76;100.00
54936;BME280;40838;50.676;7.838;2023-02-03T01:46:03;99167.06;;;3.82;100.00
54936;BME280;40838;50.676;7.838;2023-02-03T01:48:32;99172.94;;;4.15;100.00
54936;BME280;40838;50.676;7.838;2023-02-03T01:51:01;99177.28;;;3.96;100.00
54936;BME280;40838;50.676;7.838;2023-02-03T01:53:30;99177.59;;;4.13;100.00
54936;BME280;40838;50.676;7.838;2023-02-03T01:56:00;99181.97;;;4.33;100.00
54936;BME280;40838;50.676;7.838;2023-02-03T01:58:31;99175.28;;;4.30;100.00
54936;BME280;40838;50.676;7.838;2023-02-03T02:01:03;99182.38;;;4.30;100.00
54936;BME280;40838;50.676;7.838;2023-02-03T02:03:35;99176.41;;;4.09;100.00
54936;BME280;40838;50.676;7.838;2023-02-03T02:06:06;99180.59;;;3.92;100.00
54936;BME280;40838;50.676;7.838;2023-02-03T02:08:36;99170.63;;;3.94;100.00
54936;BME280;40838;50.676;7.838;2023-02-03T02:11:05;99167.13;;;4.32;100.00
54936;BME280;40838;50.676;7.838;2023-02-03T02:13:34;99171.78;;;4.05;100.00
54936;BME280;40838;50.676;7.838;2023-02-03T02:16:11;99174.97;;;4.13;100.00
54936;BME280;40838;50.676;7.838;2023-02-03T02:18:55;99185.44;;;4.20;100.00
54936;BME280;40838;50.676;7.838;2023-02-03T02:21:40;99198.25;;;4.16;100.00
54936;BME280;40838;50.676;7.838;2023-02-03T02:24:25;99188.81;;;4.02;100.00
54936;BME280;40838;50.676;7.838;2023-02-03T02:27:06;99196.91;;;4.07;100.00
54936;BME280;40838;50.676;7.838;2023-02-03T02:29:53;99178.03;;;4.10;100.00
54936;BME280;40838;50.676;7.838;2023-02-03T02:32:46;99168.41;;;3.91;100.00
54936;BME280;40838;50.676;7.838;2023-02-03T02:35:22;99165.22;;;4.14;100.00
54936;BME280;40838;50.676;7.838;2023-02-03T02:37:58;99161.28;;;4.23;100.00
54936;BME280;40838;50.676;7.838;2023-02-03T02:40:32;99160.81;;;4.08;100.00
54936;BME280;40838;50.676;7.838;2023-02-03T02:43:08;99162.56;;;3.89;100.00
54936;BME280;40838;50.676;7.838;2023-02-03T02:45:44;99165.03;;;3.84;100.00
54936;BME280;40838;50.676;7.838;2023-02-03T02:48:18;99162.25;;;4.04;100.00
54936;BME280;40838;50.676;7.838;2023-02-03T02:50:50;99160.97;;;4.13;100.00
54936;BME280;40838;50.676;7.838;2023-02-03T02:53:21;99153.81;;;3.95;100.00
54936;BME280;40838;50.676;7.838;2023-02-03T02:55:52;99154.09;;;3.80;100.00
54936;BME280;40838;50.676;7.838;2023-02-03T02:58:20;99153.13;;;4.06;100.00
54936;BME280;40838;50.676;7.838;2023-02-03T03:00:49;99147.91;;;4.50;100.00
54936;BME280;40838;50.676;7.838;2023-02-03T03:03:20;99147.81;;;4.38;100.00
54936;BME280;40838;50.676;7.838;2023-02-03T03:05:51;99135.84;;;4.35;100.00
54936;BME280;40838;50.676;7.838;2023-02-03T03:08:27;99135.41;;;4.13;100.00
54936;BME280;40838;50.676;7.838;2023-02-03T03:10:57;99128.06;;;4.47;100.00
54936;BME280;40838;50.676;7.838;2023-02-03T03:13:31;99128.34;;;4.39;100.00
54936;BME280;40838;50.676;7.838;2023-02-03T03:16:00;99135.56;;;4.18;100.00
54936;BME280;40838;50.676;7.838;2023-02-03T03:18:33;99126.00;;;4.24;100.00
54936;BME280;40838;50.676;7.838;2023-02-03T03:21:04;99140.75;;;4.32;100.00
54936;BME280;40838;50.676;7.838;2023-02-03T03:23:35;99154.00;;;4.50;100.00
54936;BME280;40838;50.676;7.838;2023-02-03T03:26:09;99151.75;;;4.29;100.00
54936;BME280;40838;50.676;7.838;2023-02-03T03:28:44;99146.88;;;4.26;100.00
54936;BME280;40838;50.676;7.838;2023-02-03T03:31:15;99129.59;;;4.05;100.00
54936;BME280;40838;50.676;7.838;2023-02-03T03:33:44;99120.28;;;4.02;100.00
54936;BME280;40838;50.676;7.838;2023-02-03T03:36:19;99107.88;;;4.34;100.00
54936;BME280;40838;50.676;7.838;2023-02-03T03:38:54;99111.50;;;3.83;100.00
54936;BME280;40838;50.676;7.838;2023-02-03T03:41:29;99110.59;;;3.96;100.00
54936;BME280;40838;50.676;7.838;2023-02-03T03:44:03;99117.53;;;4.15;100.00
54936;BME280;40838;50.676;7.838;2023-02-03T03:46:36;99115.00;;;4.02;100.00
54936;BME280;40838;50.676;7.838;2023-02-03T03:49:07;99125.66;;;3.89;100.00
54936;BME280;40838;50.676;7.838;2023-02-03T03:51:40;99133.56;;;3.89;100.00
54936;BME280;40838;50.676;7.838;2023-02-03T03:54:11;99131.59;;;3.77;100.00
54936;BME280;40838;50.676;7.838;2023-02-03T03:56:44;99129.44;;;4.25;100.00
54936;BME280;40838;50.676;7.838;2023-02-03T03:59:13;99129.97;;;3.76;100.00
54936;BME280;40838;50.676;7.838;2023-02-03T04:01:42;99129.91;;;4.15;100.00
54936;BME280;40838;50.676;7.838;2023-02-03T04:04:13;99145.03;;;4.01;100.00
54936;BME280;40838;50.676;7.838;2023-02-03T04:06:43;99144.66;;;4.22;100.00
54936;BME280;40838;50.676;7.838;2023-02-03T04:09:10;99139.41;;;3.91;100.00
54936;BME280;40838;50.676;7.838;2023-02-03T04:11:39;99138.78;;;4.20;100.00
54936;BME280;40838;50.676;7.838;2023-02-03T04:14:24;99132.03;;;4.06;100.00
54936;BME280;40838;50.676;7.838;2023-02-03T04:16:52;99134.53;;;4.19;100.00
54936;BME280;40838;50.676;7.838;2023-02-03T04:19:20;99115.22;;;4.26;100.00
54936;BME280;40838;50.676;7.838;2023-02-03T04:21:47;99113.47;;;3.88;100.00
54936;BME280;40838;50.676;7.838;2023-02-03T04:24:14;99127.25;;;3.90;100.00
54936;BME280;40838;50.676;7.838;2023-02-03T04:26:42;99131.66;;;4.28;100.00
54936;BME280;40838;50.676;7.838;2023-02-03T04:29:10;99130.06;;;4.20;100.00
54936;BME280;40838;50.676;7.838;2023-02-03T04:31:38;99129.03;;;4.28;100.00
54936;BME280;40838;50.676;7.838;2023-02-03T04:34:05;99120.19;;;4.40;100.00
54936;BME280;40838;50.676;7.838;2023-02-03T04:36:35;99114.47;;;4.18;100.00
54936;BME280;40838;50.676;7.838;2023-02-03T04:39:02;99107.66;;;4.36;100.00
54936;BME280;40838;50.676;7.838;2023-02-03T04:41:30;99107.97;;;4.21;100.00
54936;BME280;40838;50.676;7.838;2023-02-03T04:43:57;99100.53;;;4.36;100.00
54936;BME280;40838;50.676;7.838;2023-02-03T04:46:24;99110.81;;;4.19;100.00
54936;BME280;40838;50.676;7.838;2023-02-03T04:48:51;99112.44;;;4.46;100.00
54936;BME280;40838;50.676;7.838;2023-02-03T04:51:19;99106.34;;;4.20;100.00
54936;BME280;40838;50.676;7.838;2023-02-03T04:53:49;99108.31;;;4.50;100.00
54936;BME280;40838;50.676;7.838;2023-02-03T04:56:16;99096.97;;;4.24;100.00
54936;BME280;40838;50.676;7.838;2023-02-03T04:58:43;99098.06;;;4.16;100.00
54936;BME280;40838;50.676;7.838;2023-02-03T05:01:10;99105.00;;;4.11;100.00
54936;BME280;40838;50.676;7.838;2023-02-03T05:03:37;99103.00;;;4.56;100.00
54936;BME280;40838;50.676;7.838;2023-02-03T05:06:05;99104.16;;;4.42;100.00
54936;BME280;40838;50.676;7.838;2023-02-03T05:08:32;99103.13;;;4.43;100.00
54936;BME280;40838;50.676;7.838;2023-02-03T05:11:01;99097.50;;;4.08;100.00
54936;BME280;40838;50.676;7.838;2023-02-03T05:13:28;99106.56;;;4.18;100.00
54936;BME280;40838;50.676;7.838;2023-02-03T05:15:55;99103.28;;;4.48;100.00
54936;BME280;40838;50.676;7.838;2023-02-03T05:18:23;99101.50;;;4.17;100.00
54936;BME280;40838;50.676;7.838;2023-02-03T05:20:50;99107.50;;;4.31;100.00
54936;BME280;40838;50.676;7.838;2023-02-03T05:23:17;99106.00;;;4.60;100.00
54936;BME280;40838;50.676;7.838;2023-02-03T05:25:44;99103.56;;;4.58;100.00
54936;BME280;40838;50.676;7.838;2023-02-03T05:28:13;99100.94;;;4.58;100.00
54936;BME280;40838;50.676;7.838;2023-02-03T05:30:40;99088.16;;;4.37;100.00
54936;BME280;40838;50.676;7.838;2023-02-03T05:33:07;99103.81;;;4.75;100.00
54936;BME280;40838;50.676;7.838;2023-02-03T05:35:34;99101.66;;;4.47;100.00
54936;BME280;40838;50.676;7.838;2023-02-03T05:38:02;99107.03;;;4.59;100.00
54936;BME280;40838;50.676;7.838;2023-02-03T05:40:31;99103.56;;;4.58;100.00
54936;BME280;40838;50.676;7.838;2023-02-03T05:43:17;99098.09;;;4.60;100.00
54936;BME280;40838;50.676;7.838;2023-02-03T05:45:44;99105.19;;;4.59;100.00
54936;BME280;40838;50.676;7.838;2023-02-03T05:48:11;99103.00;;;4.75;100.00
54936;BME280;40838;50.676;7.838;2023-02-03T05:50:38;99094.63;;;4.96;100.00
54936;BME280;40838;50.676;7.838;2023-02-03T05:53:08;99096.28;;;4.35;100.00
54936;BME280;40838;50.676;7.838;2023-02-03T05:55:36;99094.56;;;4.48;100.00
54936;BME280;40838;50.676;7.838;2023-02-03T05:58:03;99100.13;;;4.76;100.00
54936;BME280;40838;50.676;7.838;2023-02-03T06:00:32;99101.09;;;4.82;100.00
54936;BME280;40838;50.676;7.838;2023-02-03T06:03:00;99094.00;;;4.82;100.00
54936;BME280;40838;50.676;7.838;2023-02-03T06:05:30;99103.13;;;4.61;100.00
54936;BME280;40838;50.676;7.838;2023-02-03T06:07:58;99098.97;;;4.90;100.00
54936;BME280;40838;50.676;7.838;2023-02-03T06:10:26;99099.84;;;4.48;100.00
54936;BME280;40838;50.676;7.838;2023-02-03T06:12:53;99094.56;;;4.66;100.00
54936;BME280;40838;50.676;7.838;2023-02-03T06:15:21;99100.38;;;4.56;100.00
54936;BME280;40838;50.676;7.838;2023-02-03T06:17:50;99092.34;;;4.44;100.00
54936;BME280;40838;50.676;7.838;2023-02-03T06:20:18;99097.72;;;4.75;100.00
54936;BME280;40838;50.676;7.838;2023-02-03T06:22:45;99093.00;;;4.40;100.00
54936;BME280;40838;50.676;7.838;2023-02-03T06:25:12;99089.31;;;4.41;100.00
54936;BME280;40838;50.676;7.838;2023-02-03T06:27:39;99089.41;;;4.53;100.00
54936;BME280;40838;50.676;7.838;2023-02-03T06:30:08;99085.97;;;4.34;100.00
54936;BME280;40838;50.676;7.838;2023-02-03T06:32:36;99106.94;;;4.47;100.00
54936;BME280;40838;50.676;7.838;2023-02-03T06:35:05;99103.44;;;4.72;100.00
54936;BME280;40838;50.676;7.838;2023-02-03T06:37:33;99102.84;;;4.51;100.00
54936;BME280;40838;50.676;7.838;2023-02-03T06:40:02;99104.59;;;3.82;100.00
54936;BME280;40838;50.676;7.838;2023-02-03T06:42:30;99111.69;;;4.38;100.00
54936;BME280;40838;50.676;7.838;2023-02-03T06:44:57;99107.22;;;4.39;100.00
54936;BME280;40838;50.676;7.838;2023-02-03T06:47:24;99107.44;;;4.12;100.00
54936;BME280;40838;50.676;7.838;2023-02-03T06:49:52;99114.81;;;4.29;100.00
54936;BME280;40838;50.676;7.838;2023-02-03T06:52:20;99121.41;;;4.38;100.00
54936;BME280;40838;50.676;7.838;2023-02-03T06:54:47;99110.53;;;4.03;100.00
54936;BME280;40838;50.676;7.838;2023-02-03T06:57:14;99109.47;;;4.35;100.00
54936;BME280;40838;50.676;7.838;2023-02-03T06:59:44;99109.84;;;3.89;100.00
54936;BME280;40838;50.676;7.838;2023-02-03T07:02:11;99096.34;;;4.29;100.00
54936;BME280;40838;50.676;7.838;2023-02-03T07:04:39;99095.56;;;3.96;100.00
54936;BME280;40838;50.676;7.838;2023-02-03T07:07:08;99091.97;;;4.41;100.00
54936;BME280;40838;50.676;7.838;2023-02-03T07:09:37;99107.94;;;4.28;100.00
54936;BME280;40838;50.676;7.838;2023-02-03T07:12:04;99111.59;;;4.20;100.00
54936;BME280;40838;50.676;7.838;2023-02-03T07:14:32;99120.84;;;4.36;100.00
54936;BME280;40838;50.676;7.838;2023-02-03T07:17:00;99101.84;;;4.27;100.00
54936;BME280;40838;50.676;7.838;2023-02-03T07:19:28;99115.31;;;4.81;100.00
54936;BME280;40838;50.676;7.838;2023-02-03T07:21:55;99115.44;;;4.49;100.00
54936;BME280;40838;50.676;7.838;2023-02-03T07:24:22;99113.59;;;4.25;100.00
54936;BME280;40838;50.676;7.838;2023-02-03T07:26:52;99127.63;;;4.50;100.00
54936;BME280;40838;50.676;7.838;2023-02-03T07:29:19;99120.88;;;4.73;100.00
54936;BME280;40838;50.676;7.838;2023-02-03T07:31:47;99125.50;;;4.59;100.00
54936;BME280;40838;50.676;7.838;2023-02-03T07:34:14;99128.16;;;4.77;100.00
54936;BME280;40838;50.676;7.838;2023-02-03T07:36:48;99127.13;;;4.78;100.00
54936;BME280;40838;50.676;7.838;2023-02-03T07:39:15;99125.50;;;4.96;100.00
54936;BME280;40838;50.676;7.838;2023-02-03T07:41:43;99132.63;;;4.77;100.00
54936;BME280;40838;50.676;7.838;2023-02-03T07:44:12;99123.75;;;4.89;100.00
54936;BME280;40838;50.676;7.838;2023-02-03T07:46:40;99125.59;;;4.27;100.00
54936;BME280;40838;50.676;7.838;2023-02-03T07:49:09;99119.75;;;4.43;100.00
54936;BME280;40838;50.676;7.838;2023-02-03T07:51:36;99142.81;;;4.30;100.00
54936;BME280;40838;50.676;7.838;2023-02-03T07:54:04;99124.59;;;4.47;100.00
54936;BME280;40838;50.676;7.838;2023-02-03T07:56:31;99127.19;;;4.53;100.00
54936;BME280;40838;50.676;7.838;2023-02-03T07:58:58;99124.66;;;4.40;100.00
54936;BME280;40838;50.676;7.838;2023-02-03T08:01:27;99116.19;;;4.56;100.00
54936;BME280;40838;50.676;7.838;2023-02-03T08:03:55;99129.41;;;4.31;100.00
54936;BME280;40838;50.676;7.838;2023-02-03T08:06:22;99129.88;;;4.47;100.00
54936;BME280;40838;50.676;7.838;2023-02-03T08:08:51;99133.44;;;4.59;100.00
54936;BME280;40838;50.676;7.838;2023-02-03T08:14:21;99128.06;;;4.47;100.00
54936;BME280;40838;50.676;7.838;2023-02-03T08:16:50;99132.41;;;4.35;100.00
54936;BME280;40838;50.676;7.838;2023-02-03T08:19:17;99131.28;;;4.67;100.00
54936;BME280;40838;50.676;7.838;2023-02-03T08:21:44;99127.03;;;4.66;100.00
54936;BME280;40838;50.676;7.838;2023-02-03T08:24:11;99117.38;;;4.35;100.00
54936;BME280;40838;50.676;7.838;2023-02-03T08:26:38;99127.56;;;4.32;100.00
54936;BME280;40838;50.676;7.838;2023-02-03T08:29:06;99123.50;;;4.36;100.00
54936;BME280;40838;50.676;7.838;2023-02-03T08:31:33;99115.69;;;4.84;100.00
54936;BME280;40838;50.676;7.838;2023-02-03T08:34:02;99121.69;;;4.55;100.00
54936;BME280;40838;50.676;7.838;2023-02-03T08:36:30;99122.00;;;4.65;100.00
54936;BME280;40838;50.676;7.838;2023-02-03T08:38:58;99127.03;;;4.66;100.00
54936;BME280;40838;50.676;7.838;2023-02-03T08:41:25;99118.56;;;4.83;100.00
54936;BME280;40838;50.676;7.838;2023-02-03T08:43:52;99126.59;;;4.70;100.00
54936;BME280;40838;50.676;7.838;2023-02-03T08:46:20;99147.84;;;4.56;100.00
54936;BME280;40838;50.676;7.838;2023-02-03T08:48:47;99139.78;;;4.51;100.00
54936;BME280;40838;50.676;7.838;2023-02-03T08:51:18;99145.59;;;4.35;100.00
54936;BME280;40838;50.676;7.838;2023-02-03T08:53:45;99151.81;;;4.47;100.00
54936;BME280;40838;50.676;7.838;2023-02-03T08:56:12;99150.88;;;4.60;100.00
54936;BME280;40838;50.676;7.838;2023-02-03T08:58:40;99157.00;;;4.29;100.00
54936;BME280;40838;50.676;7.838;2023-02-03T09:01:09;99146.38;;;4.60;100.00
54936;BME280;40838;50.676;7.838;2023-02-03T09:03:37;99147.00;;;4.37;100.00
54936;BME280;40838;50.676;7.838;2023-02-03T09:06:05;99144.50;;;5.23;100.00
54936;BME280;40838;50.676;7.838;2023-02-03T09:08:35;99148.25;;;5.15;100.00
54936;BME280;40838;50.676;7.838;2023-02-03T09:11:07;99145.69;;;4.47;100.00
54936;BME280;40838;50.676;7.838;2023-02-03T09:13:35;99152.09;;;4.57;100.00
54936;BME280;40838;50.676;7.838;2023-02-03T09:16:05;99148.56;;;4.45;100.00
54936;BME280;40838;50.676;7.838;2023-02-03T09:18:32;99153.00;;;4.19;100.00
54936;BME280;40838;50.676;7.838;2023-02-03T09:21:02;99153.78;;;4.52;100.00
54936;BME280;40838;50.676;7.838;2023-02-03T09:23:39;99149.06;;;5.16;100.00
54936;BME280;40838;50.676;7.838;2023-02-03T09:26:09;99142.69;;;4.43;100.00
54936;BME280;40838;50.676;7.838;2023-02-03T09:28:37;99154.56;;;4.52;100.00
54936;BME280;40838;50.676;7.838;2023-02-03T09:31:05;99154.19;;;4.23;100.00
54936;BME280;40838;50.676;7.838;2023-02-03T09:33:33;99147.88;;;4.31;100.00
54936;BME280;40838;50.676;7.838;2023-02-03T09:36:01;99135.41;;;4.13;100.00
54936;BME280;40838;50.676;7.838;2023-02-03T09:38:30;99139.25;;;4.42;100.00
54936;BME280;40838;50.676;7.838;2023-02-03T09:41:02;99142.50;;;4.13;100.00
54936;BME280;40838;50.676;7.838;2023-02-03T09:43:39;99154.00;;;4.50;100.00
54936;BME280;40838;50.676;7.838;2023-02-03T09:46:11;99152.78;;;4.28;100.00
54936;BME280;40838;50.676;7.838;2023-02-03T09:48:46;99138.88;;;4.39;100.00
54936;BME280;40838;50.676;7.838;2023-02-03T09:51:19;99143.50;;;4.12;100.00
54936;BME280;40838;50.676;7.838;2023-02-03T09:53:52;99141.69;;;3.49;100.00
54936;BME280;40838;50.676;7.838;2023-02-03T09:56:26;99129.50;;;3.16;100.00
54936;BME280;40838;50.676;7.838;2023-02-03T09:58:55;99135.59;;;3.03;100.00
54936;BME280;40838;50.676;7.838;2023-02-03T10:01:24;99141.13;;;2.95;100.00
54936;BME280;40838;50.676;7.838;2023-02-03T10:04:00;99145.09;;;3.11;100.00
54936;BME280;40838;50.676;7.838;2023-02-03T10:06:32;99144.13;;;2.99;100.00
54936;BME280;40838;50.676;7.838;2023-02-03T10:09:21;99142.81;;;3.28;100.00
54936;BME280;40838;50.676;7.838;2023-02-03T10:18:09;99158.63;;;3.66;100.00
54936;BME280;40838;50.676;7.838;2023-02-03T10:20:42;99160.78;;;3.38;100.00
54936;BME280;40838;50.676;7.838;2023-02-03T10:23:13;99156.72;;;3.42;100.00
54936;BME280;40838;50.676;7.838;2023-02-03T10:25:43;99167.06;;;3.82;100.00
54936;BME280;40838;50.676;7.838;2023-02-03T10:28:15;99170.88;;;3.47;100.00
54936;BME280;40838;50.676;7.838;2023-02-03T10:30:47;99179.47;;;3.36;100.00
54936;BME280;40838;50.676;7.838;2023-02-03T10:33:16;99176.28;;;3.59;100.00
54936;BME280;40838;50.676;7.838;2023-02-03T10:35:48;99187.41;;;3.68;100.00
54936;BME280;40838;50.676;7.838;2023-02-03T10:38:27;99178.53;;;3.56;100.00
54936;BME280;40838;50.676;7.838;2023-02-03T10:40:58;99160.00;;;3.75;100.00
54936;BME280;40838;50.676;7.838;2023-02-03T10:43:28;99174.25;;;3.09;100.00
54936;BME280;40838;50.676;7.838;2023-02-03T10:46:19;99156.31;;;3.38;100.00
54936;BME280;40838;50.676;7.838;2023-02-03T10:48:46;99162.72;;;3.56;100.00
54936;BME280;40838;50.676;7.838;2023-02-03T10:51:22;99153.41;;;3.53;100.00
54936;BME280;40838;50.676;7.838;2023-02-03T10:53:50;99153.44;;;3.85;100.00
54936;BME280;40838;50.676;7.838;2023-02-03T10:56:20;99137.56;;;3.91;100.00
54936;BME280;40838;50.676;7.838;2023-02-03T10:58:50;99148.09;;;3.66;100.00
54936;BME280;40838;50.676;7.838;2023-02-03T11:01:21;99148.47;;;3.70;100.00
54936;BME280;40838;50.676;7.838;2023-02-03T11:03:58;99131.06;;;3.62;100.00
54936;BME280;40838;50.676;7.838;2023-02-03T11:06:26;99143.34;;;3.82;100.00
54936;BME280;40838;50.676;7.838;2023-02-03T11:08:54;99151.47;;;3.73;100.00
54936;BME280;40838;50.676;7.838;2023-02-03T11:11:23;99147.38;;;3.84;100.00
54936;BME280;40838;50.676;7.838;2023-02-03T11:13:54;99159.56;;;3.40;100.00
54936;BME280;40838;50.676;7.838;2023-02-03T11:16:23;99153.97;;;3.62;100.00
54936;BME280;40838;50.676;7.838;2023-02-03T11:18:54;99148.59;;;3.82;100.00
54936;BME280;40838;50.676;7.838;2023-02-03T11:21:22;99145.50;;;4.66;100.00
54936;BME280;40838;50.676;7.838;2023-02-03T11:23:55;99149.00;;;4.85;100.00
54936;BME280;40838;50.676;7.838;2023-02-03T11:26:24;99147.03;;;4.56;100.00
54936;BME280;40838;50.676;7.838;2023-02-03T11:28:55;99138.63;;;5.02;100.00
54936;BME280;40838;50.676;7.838;2023-02-03T11:31:26;99123.63;;;4.41;100.00
54936;BME280;40838;50.676;7.838;2023-02-03T11:33:57;99131.44;;;4.54;100.00
54936;BME280;40838;50.676;7.838;2023-02-03T11:36:27;99126.94;;;4.55;100.00
54936;BME280;40838;50.676;7.838;2023-02-03T11:39:17;99120.88;;;4.54;100.00
54936;BME280;40838;50.676;7.838;2023-02-03T11:41:45;99112.34;;;4.52;100.00
54936;BME280;40838;50.676;7.838;2023-02-03T11:44:18;99106.50;;;5.24;100.00
54936;BME280;40838;50.676;7.838;2023-02-03T11:46:47;99107.16;;;4.64;100.00
54936;BME280;40838;50.676;7.838;2023-02-03T11:49:52;99096.97;;;5.04;100.00
54936;BME280;40838;50.676;7.838;2023-02-03T11:52:44;99094.63;;;4.78;100.00
54936;BME280;40838;50.676;7.838;2023-02-03T11:55:26;99097.72;;;5.11;100.00
54936;BME280;40838;50.676;7.838;2023-02-03T11:58:09;99090.81;;;4.55;100.00
54936;BME280;40838;50.676;7.838;2023-02-03T12:00:44;99111.41;;;4.21;100.00
54936;BME280;40838;50.676;7.838;2023-02-03T12:03:28;99106.72;;;4.49;100.00
54936;BME280;40838;50.676;7.838;2023-02-03T12:06:09;99115.13;;;4.39;100.00
54936;BME280;40838;50.676;7.838;2023-02-03T12:08:50;99117.25;;;4.30;100.00
54936;BME280;40838;50.676;7.838;2023-02-03T12:11:33;99112.97;;;4.29;100.00
54936;BME280;40838;50.676;7.838;2023-02-03T12:14:25;99117.91;;;4.44;100.00
54936;BME280;40838;50.676;7.838;2023-02-03T12:17:29;99106.50;;;4.87;100.00
54936;BME280;40838;50.676;7.838;2023-02-03T12:20:16;99120.00;;;4.35;100.00
54936;BME280;40838;50.676;7.838;2023-02-03T12:22:55;99114.47;;;4.18;100.00
54936;BME280;40838;50.676;7.838;2023-02-03T12:25:34;99123.84;;;3.83;100.00
54936;BME280;40838;50.676;7.838;2023-02-03T12:28:11;99128.59;;;3.74;100.00
54936;BME280;40838;50.676;7.838;2023-02-03T12:30:43;99113.06;;;3.59;100.00
54936;BME280;40838;50.676;7.838;2023-02-03T12:33:16;99116.72;;;3.58;100.00
54936;BME280;40838;50.676;7.838;2023-02-03T12:35:49;99107.63;;;3.86;100.00
54936;BME280;40838;50.676;7.838;2023-02-03T12:38:24;99102.69;;;3.96;100.00
54936;BME280;40838;50.676;7.838;2023-02-03T12:40:56;99099.06;;;3.90;100.00
54936;BME280;40838;50.676;7.838;2023-02-03T12:43:29;99093.34;;;3.68;100.00
54936;BME280;40838;50.676;7.838;2023-02-03T12:46:08;99091.72;;;3.67;100.00
54936;BME280;40838;50.676;7.838;2023-02-03T12:48:45;99092.69;;;3.41;100.00
54936;BME280;40838;50.676;7.838;2023-02-03T12:51:25;99102.81;;;3.76;100.00
54936;BME280;40838;50.676;7.838;2023-02-03T12:53:57;99106.66;;;3.80;100.00
54936;BME280;40838;50.676;7.838;2023-02-03T12:56:32;99101.06;;;4.27;100.00
54936;BME280;40838;50.676;7.838;2023-02-03T12:59:05;99103.09;;;3.93;100.00
54936;BME280;40838;50.676;7.838;2023-02-03T13:01:42;99097.25;;;3.59;100.00
54936;BME280;40838;50.676;7.838;2023-02-03T13:04:15;99093.44;;;3.87;100.00
54936;BME280;40838;50.676;7.838;2023-02-03T13:06:52;99087.91;;;3.63;100.00
54936;BME280;40838;50.676;7.838;2023-02-03T13:09:27;99098.34;;;3.76;100.00
54936;BME280;40838;50.676;7.838;2023-02-03T13:12:02;99104.59;;;3.82;100.00
54936;BME280;40838;50.676;7.838;2023-02-03T13:14:33;99114.09;;;3.58;100.00
54936;BME280;40838;50.676;7.838;2023-02-03T13:17:07;99117.94;;;3.87;100.00
54936;BME280;40838;50.676;7.838;2023-02-03T13:19:42;99099.94;;;3.52;100.00
54936;BME280;40838;50.676;7.838;2023-02-03T13:22:13;99101.28;;;3.62;100.00
54936;BME280;40838;50.676;7.838;2023-02-03T13:24:45;99098.09;;;3.53;100.00
54936;BME280;40838;50.676;7.838;2023-02-03T13:27:37;99112.34;;;3.77;100.00
54936;BME280;40838;50.676;7.838;2023-02-03T13:30:19;99087.91;;;3.63;100.00